createdAt,value
2022-10-14T00:01:23.262Z,66.70
2022-10-14T00:04:05.552Z,58.20
2022-10-14T00:06:34.997Z,51.00
2022-10-14T00:09:09.037Z,35.60
2022-10-14T00:11:38.418Z,37.50
2022-10-14T00:14:12.470Z,42.60
2022-10-14T00:16:42.882Z,38.80
2022-10-14T00:19:13.286Z,42.30
2022-10-14T00:21:44.652Z,35.70
2022-10-14T00:24:16.144Z,32.20
2022-10-14T00:26:44.516Z,36.90
2022-10-14T00:29:19.025Z,24.20
2022-10-14T00:31:47.664Z,24.80
2022-10-14T00:34:17.377Z,27.60
2022-10-14T00:36:45.745Z,28.20
2022-10-14T00:39:17.586Z,27.00
2022-10-14T00:41:46.153Z,21.80
2022-10-14T00:44:14.447Z,14.70
2022-10-14T00:46:47.815Z,16.30
2022-10-14T00:49:22.152Z,21.50
2022-10-14T00:52:13.671Z,18.50
2022-10-14T00:54:50.406Z,19.80
2022-10-14T00:57:19.898Z,18.80
2022-10-14T00:59:49.194Z,20.20
2022-10-14T01:02:17.334Z,24.20
2022-10-14T01:04:46.688Z,21.80
2022-10-14T01:07:27.258Z,16.80
2022-10-14T01:10:19.137Z,18.40
2022-10-14T01:13:05.340Z,18.70
2022-10-14T01:15:48.559Z,16.10
2022-10-14T01:18:42.567Z,17.40
2022-10-14T01:21:27.753Z,18.40
2022-10-14T01:24:27.005Z,18.80
2022-10-14T01:27:33.222Z,17.10
2022-10-14T01:30:25.252Z,17.20
2022-10-14T01:33:18.119Z,18.00
2022-10-14T01:36:27.626Z,20.90
2022-10-14T01:39:12.747Z,21.60
2022-10-14T01:41:46.661Z,24.50
2022-10-14T01:44:18.926Z,20.60
2022-10-14T01:46:52.795Z,23.30
2022-10-14T01:49:29.662Z,20.40
2022-10-14T01:52:07.669Z,18.90
2022-10-14T01:54:40.943Z,20.20
2022-10-14T01:57:14.396Z,21.20
2022-10-14T01:59:44.493Z,23.40
2022-10-14T02:02:13.794Z,21.30
2022-10-14T02:04:42.369Z,18.50
2022-10-14T02:07:13.891Z,25.70
2022-10-14T02:09:53.567Z,23.10
2022-10-14T02:12:36.194Z,28.90
2022-10-14T02:15:33.760Z,32.10
2022-10-14T02:18:29.671Z,33.70
2022-10-14T02:21:20.265Z,33.00
2022-10-14T02:24:00.483Z,33.00
2022-10-14T02:26:30.572Z,28.00
2022-10-14T02:29:02.004Z,34.00
2022-10-14T02:31:32.701Z,30.50
2022-10-14T02:34:06.019Z,29.70
2022-10-14T02:36:36.768Z,30.10
2022-10-14T02:39:10.051Z,33.30
2022-10-14T02:41:40.106Z,25.00
2022-10-14T02:44:09.751Z,24.40
2022-10-14T02:46:41.434Z,23.80
2022-10-14T02:49:10.995Z,25.80
2022-10-14T02:51:39.377Z,29.60
2022-10-14T02:54:12.649Z,23.40
2022-10-14T02:56:41.303Z,22.10
2022-10-14T02:59:09.565Z,29.70
2022-10-14T03:01:39.389Z,30.90
2022-10-14T03:04:08.938Z,29.70
2022-10-14T03:06:37.708Z,31.80
2022-10-14T03:09:06.122Z,38.80
2022-10-14T03:11:37.019Z,35.50
2022-10-14T03:14:07.548Z,37.40
2022-10-14T03:16:36.603Z,33.30
2022-10-14T03:19:05.256Z,36.20
2022-10-14T03:21:46.905Z,41.50
2022-10-14T03:24:20.142Z,41.50
2022-10-14T03:26:52.422Z,41.90
2022-10-14T03:29:25.623Z,37.30
2022-10-14T03:32:11.254Z,39.50
2022-10-14T03:35:01.594Z,45.70
2022-10-14T03:37:29.968Z,41.90
2022-10-14T03:39:59.315Z,44.40
2022-10-14T03:42:27.946Z,42.30
2022-10-14T03:44:56.705Z,39.30
2022-10-14T03:47:28.829Z,46.10
2022-10-14T03:49:56.901Z,40.00
2022-10-14T03:52:33.977Z,40.50
2022-10-14T03:55:08.697Z,37.10
2022-10-14T03:57:37.502Z,35.60
2022-10-14T04:00:07.825Z,44.10
2022-10-14T04:02:44.982Z,36.90
2022-10-14T04:05:26.440Z,41.00
2022-10-14T04:07:54.581Z,40.50
2022-10-14T04:10:23.219Z,38.70
2022-10-14T04:12:53.941Z,41.50
2022-10-14T04:15:28.278Z,34.30
2022-10-14T04:18:12.693Z,34.00
2022-10-14T04:20:41.553Z,37.50
2022-10-14T04:23:10.318Z,33.80
2022-10-14T04:25:40.720Z,34.90
2022-10-14T04:28:09.128Z,30.00
2022-10-14T04:30:46.434Z,35.90
2022-10-14T04:33:19.563Z,33.00
2022-10-14T04:35:48.580Z,27.10
2022-10-14T04:38:25.253Z,29.00
2022-10-14T04:40:58.167Z,31.30
2022-10-14T04:43:26.808Z,33.80
2022-10-14T04:45:55.155Z,34.60
2022-10-14T04:48:26.756Z,35.50
2022-10-14T04:50:56.762Z,34.60
2022-10-14T04:53:38.074Z,35.00
2022-10-14T04:56:13.731Z,42.40
2022-10-14T04:58:50.411Z,36.60
2022-10-14T05:01:18.836Z,37.90
2022-10-14T05:03:48.733Z,40.20
2022-10-14T05:06:18.202Z,38.20
2022-10-14T05:08:47.182Z,37.30
2022-10-14T05:11:15.382Z,34.80
2022-10-14T05:13:48.783Z,35.20
2022-10-14T05:16:17.094Z,47.90
2022-10-14T05:18:45.805Z,41.90
2022-10-14T05:21:15.519Z,37.60
2022-10-14T05:23:54.765Z,36.20
2022-10-14T05:26:23.335Z,37.30
2022-10-14T05:28:53.264Z,36.50
2022-10-14T05:31:22.236Z,37.40
2022-10-14T05:33:56.779Z,48.60
2022-10-14T05:36:24.994Z,37.70
2022-10-14T05:38:59.008Z,38.20
2022-10-14T05:41:29.499Z,35.70
2022-10-14T05:43:57.871Z,39.40
2022-10-14T05:46:26.606Z,37.30
2022-10-14T05:48:57.645Z,33.70
2022-10-14T05:51:26.736Z,47.20
2022-10-14T05:54:00.532Z,49.70
2022-10-14T05:56:28.941Z,37.60
2022-10-14T05:58:57.827Z,44.30
2022-10-14T06:01:27.656Z,51.40
2022-10-14T06:03:55.801Z,48.70
2022-10-14T06:06:28.741Z,45.40
2022-10-14T06:08:58.643Z,39.40
2022-10-14T06:11:26.947Z,40.90
2022-10-14T06:13:55.363Z,39.90
2022-10-14T06:16:24.155Z,46.20
2022-10-14T06:18:54.447Z,45.80
2022-10-14T06:21:23.432Z,52.30
2022-10-14T06:23:52.138Z,51.00
2022-10-14T06:26:20.227Z,61.00
2022-10-14T06:28:48.553Z,54.00
2022-10-14T06:31:18.893Z,51.20
2022-10-14T06:33:48.021Z,59.80
2022-10-14T06:36:16.579Z,48.10
2022-10-14T06:38:45.074Z,47.00
2022-10-14T06:41:13.440Z,58.40
2022-10-14T06:43:42.064Z,50.90
2022-10-14T06:46:10.957Z,54.70
2022-10-14T06:48:41.731Z,44.90
2022-10-14T06:51:10.332Z,46.90
2022-10-14T06:53:38.775Z,55.50
2022-10-14T06:56:07.614Z,52.00
2022-10-14T06:58:35.913Z,59.20
2022-10-14T07:01:06.751Z,52.00
2022-10-14T07:03:37.097Z,50.10
2022-10-14T07:06:07.423Z,50.50
2022-10-14T07:08:36.336Z,51.10
2022-10-14T07:11:06.426Z,50.50
2022-10-14T07:13:35.604Z,78.60
2022-10-14T07:16:04.947Z,40.80
2022-10-14T07:18:33.880Z,44.10
2022-10-14T07:21:06.378Z,61.70
2022-10-14T07:23:35.161Z,47.70
2022-10-14T07:26:04.397Z,61.50
2022-10-14T07:28:35.903Z,48.80
2022-10-14T07:31:11.498Z,48.50
2022-10-14T07:33:41.399Z,41.90
2022-10-14T07:36:13.593Z,66.70
2022-10-14T07:38:44.848Z,42.30
2022-10-14T07:41:18.835Z,45.60
2022-10-14T07:43:50.531Z,47.50
2022-10-14T07:46:29.537Z,46.50
2022-10-14T07:49:01.300Z,42.70
2022-10-14T07:51:31.472Z,42.90
2022-10-14T07:54:02.112Z,46.30
2022-10-14T07:56:30.763Z,43.80
2022-10-14T07:58:59.444Z,46.60
2022-10-14T08:01:27.737Z,48.00
2022-10-14T08:03:56.233Z,49.50
2022-10-14T08:06:25.352Z,48.50
2022-10-14T08:08:54.423Z,45.80
2022-10-14T08:11:25.919Z,41.30
2022-10-14T08:13:55.598Z,37.60
2022-10-14T08:16:33.273Z,39.80
2022-10-14T08:19:08.481Z,41.40
2022-10-14T08:21:39.963Z,41.70
2022-10-14T08:24:08.892Z,37.20
2022-10-14T08:26:50.246Z,37.10
2022-10-14T08:29:19.362Z,35.50
2022-10-14T08:31:47.804Z,34.50
2022-10-14T08:34:16.490Z,30.50
2022-10-14T08:36:45.267Z,38.70
2022-10-14T08:39:13.852Z,29.40
2022-10-14T08:42:07.430Z,29.20
2022-10-14T08:44:57.293Z,31.80
2022-10-14T08:47:39.554Z,36.60
2022-10-14T08:50:45.053Z,29.60
2022-10-14T08:53:38.913Z,33.30
2022-10-14T08:56:10.087Z,31.80
2022-10-14T08:58:46.546Z,22.70
2022-10-14T09:01:32.959Z,27.70
2022-10-14T09:04:13.429Z,30.80
2022-10-14T09:06:46.151Z,31.60
2022-10-14T09:09:40.518Z,32.20
2022-10-14T09:12:17.164Z,34.00
2022-10-14T09:14:49.856Z,29.00
2022-10-14T09:17:27.536Z,31.30
2022-10-14T09:20:21.128Z,31.30
2022-10-14T09:23:12.455Z,36.40
2022-10-14T09:26:04.712Z,38.00
2022-10-14T09:28:38.592Z,31.50
2022-10-14T09:31:12.273Z,31.20
2022-10-14T09:33:43.097Z,27.00
2022-10-14T09:36:19.115Z,32.50
2022-10-14T09:38:53.509Z,26.10
2022-10-14T09:41:30.932Z,32.00
2022-10-14T09:44:18.801Z,30.50
2022-10-14T09:46:50.159Z,34.70
2022-10-14T09:49:45.907Z,31.90
2022-10-14T09:52:23.386Z,34.70
2022-10-14T09:54:58.878Z,28.10
2022-10-14T10:00:02.420Z,26.10
2022-10-14T10:02:42.405Z,24.00
2022-10-14T10:05:25.468Z,24.60
2022-10-14T10:08:08.158Z,22.60
2022-10-14T10:10:38.199Z,20.20
2022-10-14T10:13:22.584Z,21.40
2022-10-14T10:15:59.806Z,25.20
2022-10-14T10:18:29.159Z,30.80
2022-10-14T10:21:07.183Z,16.70
2022-10-14T10:23:37.066Z,19.80
2022-10-14T10:26:29.338Z,21.00
2022-10-14T10:29:00.573Z,21.60
2022-10-14T10:34:28.146Z,15.50
2022-10-14T10:37:05.688Z,20.70
2022-10-14T10:39:52.079Z,21.80
2022-10-14T10:42:34.633Z,16.10
2022-10-14T10:45:17.359Z,23.30
2022-10-14T10:47:52.879Z,19.10
2022-10-14T10:50:30.916Z,22.30
2022-10-14T10:53:23.188Z,23.20
2022-10-14T10:56:25.428Z,17.20
2022-10-14T10:59:44.328Z,17.40
2022-10-14T11:02:12.870Z,16.60
2022-10-14T11:05:03.599Z,19.10
2022-10-14T11:08:15.137Z,17.60
2022-10-14T11:11:36.902Z,15.50
2022-10-14T11:14:41.365Z,19.30
2022-10-14T11:17:25.629Z,20.70
2022-10-14T11:20:21.315Z,16.30
2022-10-14T11:23:04.931Z,19.80
2022-10-14T11:25:59.226Z,14.50
2022-10-14T11:28:36.497Z,14.60
2022-10-14T11:31:41.275Z,21.40
2022-10-14T11:35:03.656Z,22.00
2022-10-14T11:37:41.358Z,16.50
2022-10-14T11:40:16.623Z,19.70
2022-10-14T11:42:56.233Z,26.40
2022-10-14T11:45:37.177Z,18.40
2022-10-14T11:48:24.229Z,19.20
2022-10-14T11:51:16.229Z,25.80
2022-10-14T11:54:12.665Z,16.50
2022-10-14T11:56:46.962Z,17.80
2022-10-14T11:59:28.944Z,19.20
2022-10-14T12:02:26.409Z,17.80
2022-10-14T12:05:03.010Z,17.80
2022-10-14T12:07:41.236Z,23.10
2022-10-14T12:10:21.953Z,16.50
2022-10-14T12:12:51.696Z,17.10
2022-10-14T12:15:25.541Z,21.00
2022-10-14T12:18:01.107Z,20.40
2022-10-14T12:20:47.859Z,18.80
2022-10-14T12:23:26.736Z,17.80
2022-10-14T12:26:20.071Z,19.40
2022-10-14T12:28:52.781Z,19.30
2022-10-14T12:31:28.883Z,19.60
2022-10-14T12:34:15.839Z,23.40
2022-10-14T12:36:50.785Z,20.20
2022-10-14T12:39:19.622Z,16.90
2022-10-14T12:41:54.871Z,23.70
2022-10-14T12:44:30.516Z,23.10
2022-10-14T12:46:59.295Z,19.50
2022-10-14T12:49:36.233Z,21.70
2022-10-14T12:52:09.431Z,23.40
2022-10-14T12:54:48.973Z,29.10
2022-10-14T12:57:37.342Z,25.60
2022-10-14T13:00:22.425Z,16.90
2022-10-14T13:03:01.569Z,17.70
2022-10-14T13:05:43.810Z,20.50
2022-10-14T13:08:23.889Z,16.60
2022-10-14T13:10:55.300Z,23.10
2022-10-14T13:13:39.086Z,16.20
2022-10-14T13:16:23.712Z,17.80
2022-10-14T13:18:58.065Z,20.80
2022-10-14T13:21:35.492Z,16.80
2022-10-14T13:24:17.188Z,22.80
2022-10-14T13:26:54.632Z,24.40
2022-10-14T13:29:54.823Z,19.70
2022-10-14T13:32:44.322Z,25.80
2022-10-14T13:35:33.889Z,17.10
2022-10-14T13:38:16.454Z,24.70
2022-10-14T13:40:53.006Z,22.30
2022-10-14T13:43:29.891Z,17.20
2022-10-14T13:46:09.808Z,24.30
2022-10-14T13:48:44.191Z,30.60
2022-10-14T13:51:32.048Z,23.60
2022-10-14T13:54:28.523Z,29.50
2022-10-14T13:57:21.935Z,22.20
2022-10-14T14:02:44.428Z,17.30
2022-10-14T14:05:17.713Z,22.30
2022-10-14T14:10:51.399Z,20.20
2022-10-14T14:13:28.509Z,24.50
2022-10-14T14:15:58.519Z,22.20
2022-10-14T14:18:49.524Z,22.20
2022-10-14T14:21:27.786Z,20.10
2022-10-14T14:24:01.804Z,22.40
2022-10-14T14:26:36.966Z,23.30
2022-10-14T14:29:14.654Z,21.10
2022-10-14T14:32:05.456Z,20.20
2022-10-14T14:34:37.375Z,20.30
2022-10-14T14:37:33.910Z,23.60
2022-10-14T14:40:07.798Z,18.20
2022-10-14T14:42:39.756Z,24.90
2022-10-14T14:45:15.074Z,24.10
2022-10-14T14:47:44.096Z,17.80
2022-10-14T14:50:30.154Z,20.60
2022-10-14T14:53:21.224Z,18.60
2022-10-14T14:56:01.264Z,23.40
2022-10-14T14:58:49.682Z,18.00
2022-10-14T15:01:30.722Z,19.90
2022-10-14T15:04:17.326Z,18.30
2022-10-14T15:07:20.824Z,18.60
2022-10-14T15:09:54.770Z,18.80
2022-10-14T15:12:26.143Z,20.10
2022-10-14T15:15:00.181Z,24.40
2022-10-14T15:17:29.849Z,24.40
2022-10-14T15:20:05.290Z,28.00
2022-10-14T15:22:38.322Z,21.70
2022-10-14T15:25:21.744Z,28.10
2022-10-14T15:28:01.053Z,24.80
2022-10-14T15:30:41.382Z,25.60
2022-10-14T15:33:17.336Z,23.00
2022-10-14T15:35:46.956Z,27.10
2022-10-14T15:38:18.563Z,26.20
2022-10-14T15:40:48.620Z,24.70
2022-10-14T15:43:23.585Z,24.90
2022-10-14T15:46:16.324Z,25.20
2022-10-14T15:48:52.554Z,24.70
2022-10-14T15:51:26.007Z,22.60
2022-10-14T15:53:54.360Z,22.50
2022-10-14T15:56:23.272Z,30.90
2022-10-14T15:58:51.668Z,27.50
2022-10-14T16:01:22.707Z,29.60
2022-10-14T16:03:55.275Z,28.70
2022-10-14T16:06:24.744Z,24.20
2022-10-14T16:08:53.297Z,25.20
2022-10-14T16:11:28.161Z,26.30
2022-10-14T16:13:57.016Z,30.90
2022-10-14T16:16:31.966Z,28.00
2022-10-14T16:19:03.573Z,34.20
2022-10-14T16:21:32.275Z,36.30
2022-10-14T16:24:03.091Z,36.50
2022-10-14T16:26:31.429Z,29.10
2022-10-14T16:29:00.486Z,34.60
2022-10-14T16:31:28.845Z,32.70
2022-10-14T16:33:57.079Z,35.20
2022-10-14T16:36:26.537Z,36.00
2022-10-14T16:38:56.332Z,38.20
2022-10-14T16:41:28.125Z,30.00
2022-10-14T16:43:56.335Z,45.10
2022-10-14T16:46:44.761Z,30.60
2022-10-14T16:49:14.809Z,36.00
2022-10-14T16:51:45.125Z,39.80
2022-10-14T16:54:13.473Z,31.40
2022-10-14T16:56:54.109Z,28.20
2022-10-14T16:59:24.666Z,25.50
2022-10-14T17:01:53.189Z,30.80
2022-10-14T17:04:22.585Z,34.10
2022-10-14T17:07:12.589Z,32.20
2022-10-14T17:09:41.244Z,31.20
2022-10-14T17:12:13.695Z,34.30
2022-10-14T17:14:43.061Z,34.50
2022-10-14T17:17:12.664Z,51.80
2022-10-14T17:19:43.021Z,43.70
2022-10-14T17:22:12.360Z,36.90
2022-10-14T17:24:41.167Z,34.60
2022-10-14T17:27:10.947Z,40.10
2022-10-14T17:29:39.381Z,32.20
2022-10-14T17:32:07.698Z,33.50
2022-10-14T17:34:35.993Z,36.00
2022-10-14T17:37:05.570Z,35.20
2022-10-14T17:39:34.087Z,32.10
2022-10-14T17:42:02.294Z,34.50
2022-10-14T17:44:30.491Z,37.50
2022-10-14T17:47:00.527Z,31.50
2022-10-14T17:49:31.328Z,37.00
2022-10-14T17:52:02.387Z,32.20
2022-10-14T17:54:30.576Z,45.40
2022-10-14T17:56:58.605Z,36.00
2022-10-14T17:59:27.572Z,36.90
2022-10-14T18:02:03.682Z,38.60
2022-10-14T18:04:32.910Z,38.40
2022-10-14T18:07:01.681Z,45.40
2022-10-14T18:09:29.622Z,59.80
2022-10-14T18:12:13.378Z,48.40
2022-10-14T18:14:43.012Z,41.80
2022-10-14T18:17:12.612Z,35.00
2022-10-14T18:19:42.050Z,41.30
2022-10-14T18:22:11.407Z,43.80
2022-10-14T18:24:39.791Z,52.20
2022-10-14T18:27:08.484Z,49.70
2022-10-14T18:29:37.671Z,55.30
2022-10-14T18:32:06.518Z,51.20
2022-10-14T18:34:34.882Z,40.20
2022-10-14T18:37:03.248Z,46.60
2022-10-14T18:39:31.775Z,31.60
2022-10-14T18:42:00.022Z,33.00
2022-10-14T18:44:28.266Z,37.40
2022-10-14T18:46:57.040Z,26.60
2022-10-14T18:49:25.049Z,29.30
2022-10-14T18:51:55.380Z,28.80
2022-10-14T18:54:26.157Z,26.10
2022-10-14T18:56:55.853Z,32.80
2022-10-14T18:59:24.213Z,32.20
2022-10-14T19:01:54.006Z,30.20
2022-10-14T19:04:25.560Z,28.40
2022-10-14T19:06:54.430Z,31.00
2022-10-14T19:09:28.816Z,35.30
2022-10-14T19:11:59.176Z,29.10
2022-10-14T19:14:28.961Z,34.80
2022-10-14T19:16:57.329Z,29.90
2022-10-14T19:19:25.243Z,35.10
2022-10-14T19:21:56.398Z,30.30
2022-10-14T19:24:24.605Z,37.70
2022-10-14T19:26:54.358Z,35.20
2022-10-14T19:29:22.768Z,30.70
2022-10-14T19:31:51.282Z,31.50
2022-10-14T19:34:19.718Z,29.80
2022-10-14T19:36:47.697Z,29.80
2022-10-14T19:39:16.924Z,34.20
2022-10-14T19:41:46.694Z,31.90
2022-10-14T19:44:16.676Z,30.70
2022-10-14T19:46:45.417Z,28.70
2022-10-14T19:49:15.238Z,32.90
2022-10-14T19:51:44.117Z,29.50
2022-10-14T19:54:13.657Z,24.30
2022-10-14T19:56:42.273Z,28.60
2022-10-14T19:59:13.705Z,34.20
2022-10-14T20:01:42.627Z,32.40
2022-10-14T20:04:11.739Z,29.70
2022-10-14T20:06:40.525Z,29.00
2022-10-14T20:09:09.315Z,33.40
2022-10-14T20:11:37.909Z,38.40
2022-10-14T20:14:06.248Z,41.40
2022-10-14T20:16:34.697Z,32.90
2022-10-14T20:19:03.492Z,28.80
2022-10-14T20:21:32.013Z,38.60
2022-10-14T20:24:00.322Z,39.60
2022-10-14T20:26:28.548Z,29.80
2022-10-14T20:28:56.700Z,32.70
2022-10-14T20:31:27.654Z,38.10
2022-10-14T20:33:57.111Z,32.90
2022-10-14T20:36:25.131Z,35.40
2022-10-14T20:38:53.297Z,38.10
2022-10-14T20:41:25.156Z,27.30
2022-10-14T20:43:54.688Z,30.60
2022-10-14T20:46:24.774Z,39.50
2022-10-14T20:48:55.319Z,37.40
2022-10-14T20:51:24.685Z,32.00
2022-10-14T20:54:01.906Z,27.80
2022-10-14T20:56:35.036Z,26.80
2022-10-14T20:59:08.263Z,29.90
2022-10-14T21:01:37.972Z,25.40
2022-10-14T21:04:09.609Z,37.10
2022-10-14T21:06:39.075Z,35.20
2022-10-14T21:09:07.976Z,40.20
2022-10-14T21:11:36.345Z,34.50
2022-10-14T21:14:04.720Z,35.20
2022-10-14T21:16:35.153Z,40.30
2022-10-14T21:19:06.905Z,40.70
2022-10-14T21:21:40.754Z,33.60
2022-10-14T21:24:12.331Z,37.60
2022-10-14T21:26:40.842Z,30.10
2022-10-14T21:29:09.196Z,28.80
2022-10-14T21:31:37.318Z,35.50
2022-10-14T21:34:06.597Z,29.60
2022-10-14T21:36:36.461Z,25.40
2022-10-14T21:39:09.931Z,23.40
2022-10-14T21:41:38.878Z,28.60
2022-10-14T21:44:07.398Z,31.70
2022-10-14T21:46:36.017Z,25.40
2022-10-14T21:49:04.054Z,23.70
2022-10-14T21:51:32.939Z,26.60
2022-10-14T21:54:01.060Z,28.60
2022-10-14T21:56:29.604Z,22.80
2022-10-14T21:58:57.886Z,26.30
2022-10-14T22:01:29.011Z,22.90
2022-10-14T22:04:04.057Z,30.20
2022-10-14T22:06:34.877Z,23.80
2022-10-14T22:09:08.906Z,22.70
2022-10-14T22:11:39.918Z,28.30
2022-10-14T22:14:12.504Z,22.20
2022-10-14T22:16:40.991Z,24.60
2022-10-14T22:19:11.336Z,21.20
2022-10-14T22:21:42.215Z,30.60
2022-10-14T22:24:10.465Z,21.90
2022-10-14T22:26:38.916Z,19.60
2022-10-14T22:29:15.450Z,26.60
2022-10-14T22:31:44.319Z,21.80
2022-10-14T22:34:16.171Z,20.10
2022-10-14T22:36:44.884Z,17.50
2022-10-14T22:39:16.338Z,18.50
2022-10-14T22:41:44.407Z,22.20
2022-10-14T22:44:12.852Z,34.30
2022-10-14T22:46:41.247Z,22.30
2022-10-14T22:49:09.688Z,23.80
2022-10-14T22:51:43.328Z,22.80
2022-10-14T22:54:12.150Z,29.50
2022-10-14T22:56:40.787Z,32.70
2022-10-14T22:59:12.002Z,28.90
2022-10-14T23:01:41.964Z,28.60
2022-10-14T23:04:11.886Z,21.30
2022-10-14T23:06:43.744Z,27.10
2022-10-14T23:09:11.940Z,21.10
2022-10-14T23:11:40.247Z,22.00
2022-10-14T23:14:08.656Z,22.70
2022-10-14T23:16:37.070Z,25.60
2022-10-14T23:19:05.937Z,23.00
2022-10-14T23:21:36.744Z,22.10
2022-10-14T23:24:07.996Z,23.60
2022-10-14T23:26:36.887Z,22.20
2022-10-14T23:29:11.715Z,26.70
2022-10-14T23:31:40.974Z,19.40
2022-10-14T23:34:13.948Z,23.80
2022-10-14T23:36:42.311Z,26.70
2022-10-14T23:39:11.173Z,22.40
2022-10-14T23:41:39.575Z,23.70
2022-10-14T23:44:07.625Z,26.00
2022-10-14T23:46:35.818Z,20.70
2022-10-14T23:49:14.332Z,26.00
2022-10-14T23:51:52.138Z,25.90
2022-10-14T23:54:20.145Z,21.70
2022-10-14T23:56:48.339Z,23.50
2022-10-14T23:59:16.784Z,24.10
